sensor_id;sensor_type;location;lat;lon;timestamp;P1;durP1;ratioP1;P2;durP2;ratioP2
21806;SDS011;11065;50.786;7.840;2023-11-18T00:00:08;10.83;;;6.50;;
21806;SDS011;11065;50.786;7.840;2023-11-18T00:02:41;10.33;;;6.47;;
21806;SDS011;11065;50.786;7.840;2023-11-18T00:05:10;10.47;;;6.50;;
21806;SDS011;11065;50.786;7.840;2023-11-18T00:07:38;9.97;;;6.17;;
21806;SDS011;11065;50.786;7.840;2023-11-18T00:10:06;11.30;;;6.70;;
21806;SDS011;11065;50.786;7.840;2023-11-18T00:12:35;10.80;;;6.63;;
21806;SDS011;11065;50.786;7.840;2023-11-18T00:15:07;11.30;;;7.17;;
21806;SDS011;11065;50.786;7.840;2023-11-18T00:17:37;11.77;;;6.53;;
21806;SDS011;11065;50.786;7.840;2023-11-18T00:20:07;10.53;;;6.23;;
21806;SDS011;11065;50.786;7.840;2023-11-18T00:22:38;8.90;;;5.73;;
21806;SDS011;11065;50.786;7.840;2023-11-18T00:25:08;9.00;;;5.80;;
21806;SDS011;11065;50.786;7.840;2023-11-18T00:27:37;9.03;;;5.40;;
21806;SDS011;11065;50.786;7.840;2023-11-18T00:30:05;10.67;;;6.50;;
21806;SDS011;11065;50.786;7.840;2023-11-18T00:32:37;12.53;;;6.70;;
21806;SDS011;11065;50.786;7.840;2023-11-18T00:35:07;10.77;;;6.50;;
21806;SDS011;11065;50.786;7.840;2023-11-18T00:37:37;11.27;;;7.17;;
21806;SDS011;11065;50.786;7.840;2023-11-18T00:40:06;11.40;;;7.40;;
21806;SDS011;11065;50.786;7.840;2023-11-18T00:42:36;13.07;;;8.07;;
21806;SDS011;11065;50.786;7.840;2023-11-18T00:45:04;19.33;;;9.70;;
21806;SDS011;11065;50.786;7.840;2023-11-18T00:47:33;15.43;;;8.47;;
21806;SDS011;11065;50.786;7.840;2023-11-18T00:50:02;15.77;;;9.37;;
21806;SDS011;11065;50.786;7.840;2023-11-18T00:52:36;13.67;;;8.67;;
21806;SDS011;11065;50.786;7.840;2023-11-18T00:55:05;15.63;;;8.57;;
21806;SDS011;11065;50.786;7.840;2023-11-18T00:57:34;15.40;;;8.93;;
21806;SDS011;11065;50.786;7.840;2023-11-18T01:00:05;13.43;;;8.10;;
21806;SDS011;11065;50.786;7.840;2023-11-18T01:02:40;13.43;;;8.27;;
21806;SDS011;11065;50.786;7.840;2023-11-18T01:05:08;14.10;;;8.33;;
21806;SDS011;11065;50.786;7.840;2023-11-18T01:07:39;12.90;;;7.83;;
21806;SDS011;11065;50.786;7.840;2023-11-18T01:10:07;11.27;;;7.37;;
21806;SDS011;11065;50.786;7.840;2023-11-18T01:12:36;11.23;;;6.40;;
21806;SDS011;11065;50.786;7.840;2023-11-18T01:15:05;12.10;;;6.93;;
21806;SDS011;11065;50.786;7.840;2023-11-18T01:17:33;11.23;;;6.90;;
21806;SDS011;11065;50.786;7.840;2023-11-18T01:20:01;10.20;;;7.13;;
21806;SDS011;11065;50.786;7.840;2023-11-18T01:22:35;11.13;;;7.10;;
21806;SDS011;11065;50.786;7.840;2023-11-18T01:25:06;12.03;;;7.33;;
21806;SDS011;11065;50.786;7.840;2023-11-18T01:27:35;13.60;;;7.53;;
21806;SDS011;11065;50.786;7.840;2023-11-18T01:30:04;12.13;;;7.53;;
21806;SDS011;11065;50.786;7.840;2023-11-18T01:32:33;14.30;;;7.90;;
21806;SDS011;11065;50.786;7.840;2023-11-18T01:35:01;10.87;;;6.97;;
21806;SDS011;11065;50.786;7.840;2023-11-18T01:37:30;12.43;;;7.93;;
21806;SDS011;11065;50.786;7.840;2023-11-18T01:39:58;11.77;;;7.30;;
21806;SDS011;11065;50.786;7.840;2023-11-18T01:42:28;13.60;;;8.03;;
21806;SDS011;11065;50.786;7.840;2023-11-18T01:44:57;12.87;;;7.53;;
21806;SDS011;11065;50.786;7.840;2023-11-18T01:47:30;12.60;;;7.53;;
21806;SDS011;11065;50.786;7.840;2023-11-18T01:50:00;13.80;;;7.60;;
21806;SDS011;11065;50.786;7.840;2023-11-18T01:52:32;12.13;;;7.47;;
21806;SDS011;11065;50.786;7.840;2023-11-18T01:55:00;11.93;;;7.27;;
21806;SDS011;11065;50.786;7.840;2023-11-18T01:57:34;12.63;;;7.50;;
21806;SDS011;11065;50.786;7.840;2023-11-18T02:00:03;11.03;;;7.47;;
21806;SDS011;11065;50.786;7.840;2023-11-18T02:02:38;10.43;;;6.73;;
21806;SDS011;11065;50.786;7.840;2023-11-18T02:05:07;10.67;;;6.00;;
21806;SDS011;11065;50.786;7.840;2023-11-18T02:07:35;9.27;;;5.83;;
21806;SDS011;11065;50.786;7.840;2023-11-18T02:10:04;9.33;;;5.80;;
21806;SDS011;11065;50.786;7.840;2023-11-18T02:12:38;8.20;;;5.70;;
21806;SDS011;11065;50.786;7.840;2023-11-18T02:15:14;7.73;;;5.33;;
21806;SDS011;11065;50.786;7.840;2023-11-18T02:17:44;7.93;;;4.97;;
21806;SDS011;11065;50.786;7.840;2023-11-18T02:20:14;8.73;;;5.63;;
21806;SDS011;11065;50.786;7.840;2023-11-18T02:22:44;8.63;;;5.33;;
21806;SDS011;11065;50.786;7.840;2023-11-18T02:25:15;8.27;;;5.33;;
21806;SDS011;11065;50.786;7.840;2023-11-18T02:27:45;8.00;;;5.13;;
21806;SDS011;11065;50.786;7.840;2023-11-18T02:30:16;6.73;;;4.53;;
21806;SDS011;11065;50.786;7.840;2023-11-18T02:32:45;6.53;;;4.50;;
21806;SDS011;11065;50.786;7.840;2023-11-18T02:35:18;7.17;;;4.47;;
21806;SDS011;11065;50.786;7.840;2023-11-18T02:37:52;7.30;;;4.83;;
21806;SDS011;11065;50.786;7.840;2023-11-18T02:40:24;7.50;;;5.00;;
21806;SDS011;11065;50.786;7.840;2023-11-18T02:42:58;7.40;;;4.63;;
21806;SDS011;11065;50.786;7.840;2023-11-18T02:45:28;8.00;;;4.67;;
21806;SDS011;11065;50.786;7.840;2023-11-18T02:47:58;9.50;;;5.90;;
21806;SDS011;11065;50.786;7.840;2023-11-18T02:50:26;8.00;;;4.87;;
21806;SDS011;11065;50.786;7.840;2023-11-18T02:52:55;8.57;;;5.70;;
21806;SDS011;11065;50.786;7.840;2023-11-18T02:55:23;8.37;;;5.07;;
21806;SDS011;11065;50.786;7.840;2023-11-18T02:57:52;6.53;;;4.47;;
21806;SDS011;11065;50.786;7.840;2023-11-18T03:00:21;7.90;;;4.80;;
21806;SDS011;11065;50.786;7.840;2023-11-18T03:02:50;7.17;;;4.40;;
21806;SDS011;11065;50.786;7.840;2023-11-18T03:05:19;8.30;;;4.90;;
21806;SDS011;11065;50.786;7.840;2023-11-18T03:07:47;7.00;;;4.47;;
21806;SDS011;11065;50.786;7.840;2023-11-18T03:10:18;7.13;;;4.40;;
21806;SDS011;11065;50.786;7.840;2023-11-18T03:12:48;6.80;;;4.40;;
21806;SDS011;11065;50.786;7.840;2023-11-18T03:15:17;6.67;;;4.63;;
21806;SDS011;11065;50.786;7.840;2023-11-18T03:17:47;6.53;;;4.10;;
21806;SDS011;11065;50.786;7.840;2023-11-18T03:20:16;6.73;;;4.40;;
21806;SDS011;11065;50.786;7.840;2023-11-18T03:22:45;6.60;;;4.27;;
21806;SDS011;11065;50.786;7.840;2023-11-18T03:25:13;7.90;;;4.80;;
21806;SDS011;11065;50.786;7.840;2023-11-18T03:27:42;7.10;;;4.50;;
21806;SDS011;11065;50.786;7.840;2023-11-18T03:30:10;7.40;;;4.77;;
21806;SDS011;11065;50.786;7.840;2023-11-18T03:32:39;8.20;;;5.03;;
21806;SDS011;11065;50.786;7.840;2023-11-18T03:35:09;8.10;;;5.00;;
21806;SDS011;11065;50.786;7.840;2023-11-18T03:37:37;7.57;;;4.80;;
21806;SDS011;11065;50.786;7.840;2023-11-18T03:40:08;8.03;;;5.07;;
21806;SDS011;11065;50.786;7.840;2023-11-18T03:42:37;7.70;;;4.80;;
21806;SDS011;11065;50.786;7.840;2023-11-18T03:45:07;8.03;;;4.93;;
21806;SDS011;11065;50.786;7.840;2023-11-18T03:47:36;7.43;;;4.83;;
21806;SDS011;11065;50.786;7.840;2023-11-18T03:50:09;6.90;;;4.13;;
21806;SDS011;11065;50.786;7.840;2023-11-18T03:52:39;7.17;;;4.30;;
21806;SDS011;11065;50.786;7.840;2023-11-18T03:55:08;8.13;;;4.63;;
21806;SDS011;11065;50.786;7.840;2023-11-18T03:57:36;7.93;;;4.70;;
21806;SDS011;11065;50.786;7.840;2023-11-18T04:00:04;8.77;;;4.67;;
21806;SDS011;11065;50.786;7.840;2023-11-18T04:02:38;7.33;;;4.77;;
21806;SDS011;11065;50.786;7.840;2023-11-18T04:05:07;7.43;;;4.70;;
21806;SDS011;11065;50.786;7.840;2023-11-18T04:07:37;7.60;;;4.97;;
21806;SDS011;11065;50.786;7.840;2023-11-18T04:10:08;7.13;;;4.60;;
21806;SDS011;11065;50.786;7.840;2023-11-18T04:12:37;6.43;;;4.07;;
21806;SDS011;11065;50.786;7.840;2023-11-18T04:15:05;6.63;;;4.40;;
21806;SDS011;11065;50.786;7.840;2023-11-18T04:17:34;7.43;;;5.00;;
21806;SDS011;11065;50.786;7.840;2023-11-18T04:20:02;6.87;;;4.33;;
21806;SDS011;11065;50.786;7.840;2023-11-18T04:22:39;6.70;;;4.03;;
21806;SDS011;11065;50.786;7.840;2023-11-18T04:25:08;6.67;;;4.33;;
21806;SDS011;11065;50.786;7.840;2023-11-18T04:27:36;6.40;;;4.03;;
21806;SDS011;11065;50.786;7.840;2023-11-18T04:30:06;7.83;;;4.30;;
21806;SDS011;11065;50.786;7.840;2023-11-18T04:32:35;7.47;;;4.47;;
21806;SDS011;11065;50.786;7.840;2023-11-18T04:35:04;6.40;;;4.43;;
21806;SDS011;11065;50.786;7.840;2023-11-18T04:37:36;7.73;;;4.70;;
21806;SDS011;11065;50.786;7.840;2023-11-18T04:40:07;7.77;;;4.37;;
21806;SDS011;11065;50.786;7.840;2023-11-18T04:42:39;8.20;;;4.57;;
21806;SDS011;11065;50.786;7.840;2023-11-18T04:45:08;6.23;;;4.03;;
21806;SDS011;11065;50.786;7.840;2023-11-18T04:47:36;6.10;;;4.33;;
21806;SDS011;11065;50.786;7.840;2023-11-18T04:50:06;7.07;;;4.80;;
21806;SDS011;11065;50.786;7.840;2023-11-18T04:52:35;7.20;;;4.90;;
21806;SDS011;11065;50.786;7.840;2023-11-18T04:55:04;7.93;;;5.00;;
21806;SDS011;11065;50.786;7.840;2023-11-18T04:57:35;6.30;;;4.40;;
21806;SDS011;11065;50.786;7.840;2023-11-18T05:00:05;6.50;;;4.47;;
21806;SDS011;11065;50.786;7.840;2023-11-18T05:02:38;6.50;;;4.50;;
21806;SDS011;11065;50.786;7.840;2023-11-18T05:05:06;6.17;;;4.20;;
21806;SDS011;11065;50.786;7.840;2023-11-18T05:07:34;6.37;;;4.40;;
21806;SDS011;11065;50.786;7.840;2023-11-18T05:10:02;6.23;;;4.60;;
21806;SDS011;11065;50.786;7.840;2023-11-18T05:12:32;6.10;;;4.33;;
21806;SDS011;11065;50.786;7.840;2023-11-18T05:15:00;6.40;;;4.40;;
21806;SDS011;11065;50.786;7.840;2023-11-18T05:17:30;6.03;;;3.83;;
21806;SDS011;11065;50.786;7.840;2023-11-18T05:19:58;6.30;;;4.40;;
21806;SDS011;11065;50.786;7.840;2023-11-18T05:22:28;8.80;;;4.33;;
21806;SDS011;11065;50.786;7.840;2023-11-18T05:24:57;6.27;;;4.03;;
21806;SDS011;11065;50.786;7.840;2023-11-18T05:27:25;6.50;;;4.53;;
21806;SDS011;11065;50.786;7.840;2023-11-18T05:29:55;7.60;;;4.70;;
21806;SDS011;11065;50.786;7.840;2023-11-18T05:32:26;7.03;;;4.57;;
21806;SDS011;11065;50.786;7.840;2023-11-18T05:34:55;6.47;;;4.20;;
21806;SDS011;11065;50.786;7.840;2023-11-18T05:37:24;7.10;;;4.30;;
21806;SDS011;11065;50.786;7.840;2023-11-18T05:39:54;6.33;;;4.13;;
21806;SDS011;11065;50.786;7.840;2023-11-18T05:42:32;6.50;;;4.47;;
21806;SDS011;11065;50.786;7.840;2023-11-18T05:45:07;7.93;;;4.90;;
21806;SDS011;11065;50.786;7.840;2023-11-18T05:47:43;7.90;;;5.00;;
21806;SDS011;11065;50.786;7.840;2023-11-18T05:50:12;5.90;;;4.17;;
21806;SDS011;11065;50.786;7.840;2023-11-18T05:52:41;7.40;;;4.90;;
21806;SDS011;11065;50.786;7.840;2023-11-18T05:55:09;6.90;;;5.00;;
21806;SDS011;11065;50.786;7.840;2023-11-18T05:57:37;7.47;;;4.97;;
21806;SDS011;11065;50.786;7.840;2023-11-18T06:00:05;6.87;;;4.77;;
21806;SDS011;11065;50.786;7.840;2023-11-18T06:02:38;9.20;;;4.77;;
21806;SDS011;11065;50.786;7.840;2023-11-18T06:05:07;7.87;;;5.10;;
21806;SDS011;11065;50.786;7.840;2023-11-18T06:07:35;5.93;;;4.60;;
21806;SDS011;11065;50.786;7.840;2023-11-18T06:10:03;6.67;;;4.43;;
21806;SDS011;11065;50.786;7.840;2023-11-18T06:12:32;6.37;;;4.37;;
21806;SDS011;11065;50.786;7.840;2023-11-18T06:15:02;6.47;;;4.80;;
21806;SDS011;11065;50.786;7.840;2023-11-18T06:17:31;6.70;;;4.67;;
21806;SDS011;11065;50.786;7.840;2023-11-18T06:20:00;7.10;;;4.37;;
21806;SDS011;11065;50.786;7.840;2023-11-18T06:22:32;6.87;;;4.70;;
21806;SDS011;11065;50.786;7.840;2023-11-18T06:25:01;5.60;;;4.40;;
21806;SDS011;11065;50.786;7.840;2023-11-18T06:27:29;7.90;;;5.17;;
21806;SDS011;11065;50.786;7.840;2023-11-18T06:29:57;10.60;;;5.50;;
21806;SDS011;11065;50.786;7.840;2023-11-18T06:32:26;8.07;;;5.07;;
21806;SDS011;11065;50.786;7.840;2023-11-18T06:34:55;7.63;;;5.00;;
21806;SDS011;11065;50.786;7.840;2023-11-18T06:37:23;6.97;;;4.83;;
21806;SDS011;11065;50.786;7.840;2023-11-18T06:39:51;6.40;;;4.87;;
21806;SDS011;11065;50.786;7.840;2023-11-18T06:42:19;6.77;;;4.77;;
21806;SDS011;11065;50.786;7.840;2023-11-18T06:44:49;6.57;;;4.83;;
21806;SDS011;11065;50.786;7.840;2023-11-18T06:47:17;8.40;;;5.20;;
21806;SDS011;11065;50.786;7.840;2023-11-18T06:49:46;8.23;;;4.97;;
21806;SDS011;11065;50.786;7.840;2023-11-18T06:52:16;7.90;;;4.63;;
21806;SDS011;11065;50.786;7.840;2023-11-18T06:54:45;6.47;;;4.67;;
21806;SDS011;11065;50.786;7.840;2023-11-18T06:57:16;7.30;;;4.63;;
21806;SDS011;11065;50.786;7.840;2023-11-18T06:59:43;7.93;;;4.93;;
21806;SDS011;11065;50.786;7.840;2023-11-18T07:02:11;7.50;;;4.30;;
21806;SDS011;11065;50.786;7.840;2023-11-18T07:04:39;8.67;;;4.63;;
21806;SDS011;11065;50.786;7.840;2023-11-18T07:07:08;7.57;;;4.97;;
21806;SDS011;11065;50.786;7.840;2023-11-18T07:09:39;7.47;;;4.87;;
21806;SDS011;11065;50.786;7.840;2023-11-18T07:12:07;7.27;;;5.20;;
21806;SDS011;11065;50.786;7.840;2023-11-18T07:14:35;7.40;;;4.97;;
21806;SDS011;11065;50.786;7.840;2023-11-18T07:17:04;7.37;;;4.63;;
21806;SDS011;11065;50.786;7.840;2023-11-18T07:19:32;11.60;;;5.10;;
21806;SDS011;11065;50.786;7.840;2023-11-18T07:21:59;7.33;;;5.30;;
21806;SDS011;11065;50.786;7.840;2023-11-18T07:24:28;8.17;;;5.23;;
21806;SDS011;11065;50.786;7.840;2023-11-18T07:26:59;7.13;;;4.70;;
21806;SDS011;11065;50.786;7.840;2023-11-18T07:29:27;7.07;;;4.97;;
21806;SDS011;11065;50.786;7.840;2023-11-18T07:31:55;6.80;;;4.93;;
21806;SDS011;11065;50.786;7.840;2023-11-18T07:34:24;6.93;;;4.50;;
21806;SDS011;11065;50.786;7.840;2023-11-18T07:36:52;8.43;;;5.47;;
21806;SDS011;11065;50.786;7.840;2023-11-18T07:39:22;8.43;;;5.33;;
21806;SDS011;11065;50.786;7.840;2023-11-18T07:42:11;7.70;;;5.07;;
21806;SDS011;11065;50.786;7.840;2023-11-18T07:44:39;7.47;;;4.53;;
21806;SDS011;11065;50.786;7.840;2023-11-18T07:47:07;10.37;;;5.30;;
21806;SDS011;11065;50.786;7.840;2023-11-18T07:49:36;7.73;;;5.03;;
21806;SDS011;11065;50.786;7.840;2023-11-18T07:52:04;7.20;;;4.77;;
21806;SDS011;11065;50.786;7.840;2023-11-18T07:54:32;8.30;;;5.03;;
21806;SDS011;11065;50.786;7.840;2023-11-18T07:57:00;9.17;;;5.20;;
21806;SDS011;11065;50.786;7.840;2023-11-18T07:59:31;8.47;;;5.13;;
21806;SDS011;11065;50.786;7.840;2023-11-18T08:01:59;7.60;;;4.90;;
21806;SDS011;11065;50.786;7.840;2023-11-18T08:04:32;7.27;;;5.13;;
21806;SDS011;11065;50.786;7.840;2023-11-18T08:07:01;7.97;;;5.37;;
21806;SDS011;11065;50.786;7.840;2023-11-18T08:09:30;7.60;;;5.60;;
21806;SDS011;11065;50.786;7.840;2023-11-18T08:11:58;7.63;;;5.67;;
21806;SDS011;11065;50.786;7.840;2023-11-18T08:14:26;10.03;;;6.10;;
21806;SDS011;11065;50.786;7.840;2023-11-18T08:16:56;9.43;;;6.10;;
21806;SDS011;11065;50.786;7.840;2023-11-18T08:19:27;9.33;;;6.00;;
21806;SDS011;11065;50.786;7.840;2023-11-18T08:21:54;9.30;;;6.27;;
21806;SDS011;11065;50.786;7.840;2023-11-18T08:24:23;8.33;;;6.03;;
21806;SDS011;11065;50.786;7.840;2023-11-18T08:26:51;8.70;;;5.80;;
21806;SDS011;11065;50.786;7.840;2023-11-18T08:29:18;9.20;;;5.90;;
21806;SDS011;11065;50.786;7.840;2023-11-18T08:31:47;7.77;;;5.60;;
21806;SDS011;11065;50.786;7.840;2023-11-18T08:34:17;8.83;;;5.90;;
21806;SDS011;11065;50.786;7.840;2023-11-18T08:36:45;9.30;;;6.10;;
21806;SDS011;11065;50.786;7.840;2023-11-18T08:39:13;9.00;;;6.47;;
21806;SDS011;11065;50.786;7.840;2023-11-18T08:41:43;8.10;;;5.93;;
21806;SDS011;11065;50.786;7.840;2023-11-18T08:44:12;8.40;;;5.87;;
21806;SDS011;11065;50.786;7.840;2023-11-18T08:46:50;8.37;;;6.27;;
21806;SDS011;11065;50.786;7.840;2023-11-18T08:49:21;8.27;;;5.97;;
21806;SDS011;11065;50.786;7.840;2023-11-18T08:51:49;10.43;;;6.03;;
21806;SDS011;11065;50.786;7.840;2023-11-18T08:54:22;8.90;;;6.63;;
21806;SDS011;11065;50.786;7.840;2023-11-18T08:56:51;10.00;;;6.80;;
21806;SDS011;11065;50.786;7.840;2023-11-18T08:59:20;11.33;;;7.33;;
21806;SDS011;11065;50.786;7.840;2023-11-18T09:01:51;9.93;;;6.90;;
21806;SDS011;11065;50.786;7.840;2023-11-18T09:04:23;10.37;;;6.97;;
21806;SDS011;11065;50.786;7.840;2023-11-18T09:06:51;8.53;;;6.83;;
21806;SDS011;11065;50.786;7.840;2023-11-18T09:09:20;9.77;;;6.80;;
21806;SDS011;11065;50.786;7.840;2023-11-18T09:11:53;9.07;;;6.83;;
21806;SDS011;11065;50.786;7.840;2023-11-18T09:14:22;9.67;;;6.93;;
21806;SDS011;11065;50.786;7.840;2023-11-18T09:16:51;9.67;;;6.83;;
21806;SDS011;11065;50.786;7.840;2023-11-18T09:19:21;12.63;;;7.17;;
21806;SDS011;11065;50.786;7.840;2023-11-18T09:21:51;9.73;;;7.03;;
21806;SDS011;11065;50.786;7.840;2023-11-18T09:24:20;9.90;;;7.50;;
21806;SDS011;11065;50.786;7.840;2023-11-18T09:26:51;9.43;;;7.07;;
21806;SDS011;11065;50.786;7.840;2023-11-18T09:29:21;9.30;;;6.77;;
21806;SDS011;11065;50.786;7.840;2023-11-18T09:31:51;9.27;;;6.87;;
21806;SDS011;11065;50.786;7.840;2023-11-18T09:34:21;10.73;;;7.73;;
21806;SDS011;11065;50.786;7.840;2023-11-18T09:36:55;9.30;;;6.80;;
21806;SDS011;11065;50.786;7.840;2023-11-18T09:39:23;11.17;;;7.63;;
21806;SDS011;11065;50.786;7.840;2023-11-18T09:42:05;11.33;;;7.57;;
21806;SDS011;11065;50.786;7.840;2023-11-18T09:44:36;10.40;;;7.57;;
21806;SDS011;11065;50.786;7.840;2023-11-18T09:47:07;9.77;;;7.33;;
21806;SDS011;11065;50.786;7.840;2023-11-18T09:49:40;8.67;;;6.57;;
21806;SDS011;11065;50.786;7.840;2023-11-18T09:52:15;8.93;;;6.10;;
21806;SDS011;11065;50.786;7.840;2023-11-18T09:54:50;9.00;;;6.30;;
21806;SDS011;11065;50.786;7.840;2023-11-18T09:57:26;9.23;;;6.83;;
21806;SDS011;11065;50.786;7.840;2023-11-18T10:00:00;9.70;;;7.13;;
21806;SDS011;11065;50.786;7.840;2023-11-18T10:02:38;8.93;;;6.77;;
21806;SDS011;11065;50.786;7.840;2023-11-18T10:05:07;10.00;;;7.40;;
21806;SDS011;11065;50.786;7.840;2023-11-18T10:07:40;10.00;;;7.53;;
21806;SDS011;11065;50.786;7.840;2023-11-18T10:10:09;10.47;;;7.20;;
21806;SDS011;11065;50.786;7.840;2023-11-18T10:12:43;10.33;;;7.50;;
21806;SDS011;11065;50.786;7.840;2023-11-18T10:15:13;8.97;;;7.13;;
21806;SDS011;11065;50.786;7.840;2023-11-18T10:17:44;10.10;;;7.23;;
21806;SDS011;11065;50.786;7.840;2023-11-18T10:20:21;10.67;;;7.83;;
21806;SDS011;11065;50.786;7.840;2023-11-18T10:25:48;9.67;;;6.70;;
21806;SDS011;11065;50.786;7.840;2023-11-18T10:28:23;9.47;;;6.80;;
21806;SDS011;11065;50.786;7.840;2023-11-18T10:30:56;9.53;;;6.03;;
21806;SDS011;11065;50.786;7.840;2023-11-18T10:33:50;8.13;;;5.73;;
21806;SDS011;11065;50.786;7.840;2023-11-18T10:36:22;7.60;;;5.33;;
21806;SDS011;11065;50.786;7.840;2023-11-18T10:39:21;6.20;;;4.20;;
21806;SDS011;11065;50.786;7.840;2023-11-18T10:41:51;6.47;;;4.77;;
21806;SDS011;11065;50.786;7.840;2023-11-18T10:44:19;7.77;;;5.03;;
21806;SDS011;11065;50.786;7.840;2023-11-18T10:46:50;7.33;;;4.70;;
21806;SDS011;11065;50.786;7.840;2023-11-18T10:49:26;6.83;;;4.47;;
21806;SDS011;11065;50.786;7.840;2023-11-18T10:51:55;6.77;;;3.63;;
21806;SDS011;11065;50.786;7.840;2023-11-18T10:54:29;6.73;;;3.90;;
21806;SDS011;11065;50.786;7.840;2023-11-18T10:56:58;5.67;;;3.70;;
21806;SDS011;11065;50.786;7.840;2023-11-18T10:59:33;4.67;;;3.20;;
21806;SDS011;11065;50.786;7.840;2023-11-18T11:02:17;4.97;;;3.00;;
21806;SDS011;11065;50.786;7.840;2023-11-18T11:04:47;4.80;;;3.20;;
21806;SDS011;11065;50.786;7.840;2023-11-18T11:07:16;5.57;;;3.63;;
21806;SDS011;11065;50.786;7.840;2023-11-18T11:09:47;6.30;;;3.60;;
21806;SDS011;11065;50.786;7.840;2023-11-18T11:12:22;6.87;;;3.20;;
21806;SDS011;11065;50.786;7.840;2023-11-18T11:14:54;6.03;;;3.33;;
21806;SDS011;11065;50.786;7.840;2023-11-18T11:17:28;5.57;;;3.77;;
21806;SDS011;11065;50.786;7.840;2023-11-18T11:19:59;7.53;;;3.53;;
21806;SDS011;11065;50.786;7.840;2023-11-18T11:22:40;5.67;;;3.30;;
21806;SDS011;11065;50.786;7.840;2023-11-18T11:25:22;5.00;;;3.37;;
21806;SDS011;11065;50.786;7.840;2023-11-18T11:27:59;4.87;;;3.13;;
21806;SDS011;11065;50.786;7.840;2023-11-18T11:30:37;6.00;;;3.87;;
21806;SDS011;11065;50.786;7.840;2023-11-18T11:33:13;8.60;;;4.40;;
21806;SDS011;11065;50.786;7.840;2023-11-18T11:35:46;6.43;;;3.87;;
21806;SDS011;11065;50.786;7.840;2023-11-18T11:38:23;5.53;;;3.90;;
21806;SDS011;11065;50.786;7.840;2023-11-18T11:40:55;5.13;;;3.20;;
21806;SDS011;11065;50.786;7.840;2023-11-18T11:43:27;5.80;;;4.07;;
21806;SDS011;11065;50.786;7.840;2023-11-18T11:45:56;6.40;;;3.57;;
21806;SDS011;11065;50.786;7.840;2023-11-18T11:48:24;5.10;;;3.30;;
21806;SDS011;11065;50.786;7.840;2023-11-18T11:50:55;5.53;;;3.60;;
21806;SDS011;11065;50.786;7.840;2023-11-18T11:53:42;4.23;;;3.20;;
21806;SDS011;11065;50.786;7.840;2023-11-18T11:56:16;5.27;;;3.27;;
21806;SDS011;11065;50.786;7.840;2023-11-18T11:58:47;6.03;;;3.87;;
21806;SDS011;11065;50.786;7.840;2023-11-18T12:01:21;5.17;;;2.87;;
21806;SDS011;11065;50.786;7.840;2023-11-18T12:03:56;5.97;;;3.50;;
21806;SDS011;11065;50.786;7.840;2023-11-18T12:06:32;6.20;;;3.40;;
21806;SDS011;11065;50.786;7.840;2023-11-18T12:09:04;5.27;;;3.27;;
21806;SDS011;11065;50.786;7.840;2023-11-18T12:11:35;4.93;;;3.13;;
21806;SDS011;11065;50.786;7.840;2023-11-18T12:14:06;4.60;;;3.00;;
21806;SDS011;11065;50.786;7.840;2023-11-18T12:17:02;5.33;;;3.47;;
21806;SDS011;11065;50.786;7.840;2023-11-18T12:19:40;6.10;;;3.60;;
21806;SDS011;11065;50.786;7.840;2023-11-18T12:22:15;4.93;;;3.17;;
21806;SDS011;11065;50.786;7.840;2023-11-18T12:28:08;5.10;;;3.43;;
21806;SDS011;11065;50.786;7.840;2023-11-18T12:30:46;6.43;;;3.33;;
21806;SDS011;11065;50.786;7.840;2023-11-18T12:33:22;6.00;;;3.17;;
21806;SDS011;11065;50.786;7.840;2023-11-18T12:42:07;4.77;;;3.07;;
21806;SDS011;11065;50.786;7.840;2023-11-18T12:44:49;8.63;;;3.67;;
21806;SDS011;11065;50.786;7.840;2023-11-18T12:47:33;5.47;;;2.90;;
21806;SDS011;11065;50.786;7.840;2023-11-18T12:50:06;5.50;;;2.90;;
21806;SDS011;11065;50.786;7.840;2023-11-18T12:52:43;5.33;;;2.83;;
21806;SDS011;11065;50.786;7.840;2023-11-18T12:55:12;4.23;;;2.70;;
21806;SDS011;11065;50.786;7.840;2023-11-18T12:57:45;5.13;;;2.90;;
21806;SDS011;11065;50.786;7.840;2023-11-18T13:00:16;3.70;;;2.50;;
21806;SDS011;11065;50.786;7.840;2023-11-18T13:02:53;4.47;;;2.87;;
21806;SDS011;11065;50.786;7.840;2023-11-18T13:05:21;4.70;;;2.80;;
21806;SDS011;11065;50.786;7.840;2023-11-18T13:07:49;4.57;;;2.83;;
21806;SDS011;11065;50.786;7.840;2023-11-18T13:10:17;5.40;;;2.83;;
21806;SDS011;11065;50.786;7.840;2023-11-18T13:12:48;4.93;;;3.13;;
21806;SDS011;11065;50.786;7.840;2023-11-18T13:15:17;9.43;;;5.45;;
21806;SDS011;11065;50.786;7.840;2023-11-18T13:17:56;7.20;;;4.10;;
21806;SDS011;11065;50.786;7.840;2023-11-18T13:20:25;6.17;;;3.87;;
21806;SDS011;11065;50.786;7.840;2023-11-18T13:22:54;5.07;;;3.23;;
21806;SDS011;11065;50.786;7.840;2023-11-18T13:25:22;5.50;;;3.10;;
21806;SDS011;11065;50.786;7.840;2023-11-18T13:27:51;4.70;;;2.90;;
21806;SDS011;11065;50.786;7.840;2023-11-18T13:30:22;5.13;;;3.07;;
21806;SDS011;11065;50.786;7.840;2023-11-18T13:32:50;4.60;;;2.87;;
21806;SDS011;11065;50.786;7.840;2023-11-18T13:35:18;4.80;;;2.87;;
21806;SDS011;11065;50.786;7.840;2023-11-18T13:37:50;4.77;;;2.80;;
21806;SDS011;11065;50.786;7.840;2023-11-18T13:40:19;5.30;;;2.70;;
21806;SDS011;11065;50.786;7.840;2023-11-18T13:43:00;3.73;;;2.20;;
21806;SDS011;11065;50.786;7.840;2023-11-18T13:45:32;5.00;;;2.80;;
21806;SDS011;11065;50.786;7.840;2023-11-18T13:48:04;4.40;;;2.93;;
21806;SDS011;11065;50.786;7.840;2023-11-18T13:50:34;4.17;;;2.43;;
21806;SDS011;11065;50.786;7.840;2023-11-18T13:53:03;5.30;;;2.60;;
21806;SDS011;11065;50.786;7.840;2023-11-18T13:55:34;5.07;;;3.10;;
21806;SDS011;11065;50.786;7.840;2023-11-18T13:58:05;5.37;;;3.07;;
21806;SDS011;11065;50.786;7.840;2023-11-18T14:00:35;6.30;;;3.00;;
21806;SDS011;11065;50.786;7.840;2023-11-18T14:03:03;4.73;;;3.10;;
21806;SDS011;11065;50.786;7.840;2023-11-18T14:05:33;4.90;;;2.97;;
21806;SDS011;11065;50.786;7.840;2023-11-18T14:08:04;6.00;;;2.57;;
21806;SDS011;11065;50.786;7.840;2023-11-18T14:10:37;6.37;;;2.90;;
21806;SDS011;11065;50.786;7.840;2023-11-18T14:13:07;5.83;;;3.40;;
21806;SDS011;11065;50.786;7.840;2023-11-18T14:15:39;5.63;;;3.57;;
21806;SDS011;11065;50.786;7.840;2023-11-18T14:18:10;4.53;;;2.90;;
21806;SDS011;11065;50.786;7.840;2023-11-18T14:20:39;5.60;;;3.40;;
21806;SDS011;11065;50.786;7.840;2023-11-18T14:23:07;4.40;;;2.83;;
21806;SDS011;11065;50.786;7.840;2023-11-18T14:25:35;5.87;;;3.00;;
21806;SDS011;11065;50.786;7.840;2023-11-18T14:28:04;6.50;;;2.67;;
21806;SDS011;11065;50.786;7.840;2023-11-18T14:30:34;4.47;;;2.83;;
21806;SDS011;11065;50.786;7.840;2023-11-18T14:33:04;6.13;;;2.77;;
21806;SDS011;11065;50.786;7.840;2023-11-18T14:35:33;4.17;;;2.47;;
21806;SDS011;11065;50.786;7.840;2023-11-18T14:38:01;4.53;;;2.50;;
21806;SDS011;11065;50.786;7.840;2023-11-18T14:40:29;5.07;;;2.43;;
21806;SDS011;11065;50.786;7.840;2023-11-18T14:42:58;4.40;;;2.60;;
21806;SDS011;11065;50.786;7.840;2023-11-18T14:45:26;5.10;;;2.47;;
21806;SDS011;11065;50.786;7.840;2023-11-18T14:47:55;4.50;;;1.80;;
21806;SDS011;11065;50.786;7.840;2023-11-18T14:50:24;3.70;;;1.90;;
21806;SDS011;11065;50.786;7.840;2023-11-18T14:52:53;4.93;;;2.27;;
21806;SDS011;11065;50.786;7.840;2023-11-18T14:55:26;3.17;;;1.97;;
21806;SDS011;11065;50.786;7.840;2023-11-18T14:57:54;3.43;;;1.80;;
21806;SDS011;11065;50.786;7.840;2023-11-18T15:00:22;3.47;;;1.53;;
21806;SDS011;11065;50.786;7.840;2023-11-18T15:02:54;2.97;;;1.70;;
21806;SDS011;11065;50.786;7.840;2023-11-18T15:05:27;2.60;;;1.57;;
21806;SDS011;11065;50.786;7.840;2023-11-18T15:07:55;3.67;;;1.83;;
21806;SDS011;11065;50.786;7.840;2023-11-18T15:10:25;2.83;;;1.53;;
21806;SDS011;11065;50.786;7.840;2023-11-18T15:12:55;3.07;;;1.80;;
21806;SDS011;11065;50.786;7.840;2023-11-18T15:15:25;5.50;;;1.80;;
21806;SDS011;11065;50.786;7.840;2023-11-18T15:17:59;4.67;;;1.87;;